sensor_id;sensor_type;location;lat;lon;timestamp;pressure;altitude;pressure_sealevel;temperature;humidity
74895;BME280;63447;49.446;8.666;2023-11-19T00:00:26;100283.84;;;7.77;100.00
74895;BME280;63447;49.446;8.666;2023-11-19T00:02:51;100275.41;;;7.73;100.00
74895;BME280;63447;49.446;8.666;2023-11-19T00:05:19;100272.50;;;7.70;100.00
74895;BME280;63447;49.446;8.666;2023-11-19T00:07:44;100289.97;;;7.74;100.00
74895;BME280;63447;49.446;8.666;2023-11-19T00:10:10;100289.50;;;7.80;100.00
74895;BME280;63447;49.446;8.666;2023-11-19T00:12:43;100293.03;;;7.81;100.00
74895;BME280;63447;49.446;8.666;2023-11-19T00:15:12;100302.09;;;7.81;100.00
74895;BME280;63447;49.446;8.666;2023-11-19T00:17:42;100296.66;;;7.90;100.00
74895;BME280;63447;49.446;8.666;2023-11-19T00:20:15;100284.00;;;7.80;100.00
74895;BME280;63447;49.446;8.666;2023-11-19T00:22:43;100286.59;;;7.86;100.00
74895;BME280;63447;49.446;8.666;2023-11-19T00:25:11;100269.50;;;7.89;100.00
74895;BME280;63447;49.446;8.666;2023-11-19T00:27:36;100275.00;;;7.89;100.00
74895;BME280;63447;49.446;8.666;2023-11-19T00:30:08;100262.38;;;7.88;100.00
74895;BME280;63447;49.446;8.666;2023-11-19T00:32:33;100251.22;;;7.84;100.00
74895;BME280;63447;49.446;8.666;2023-11-19T00:34:59;100251.25;;;7.93;100.00
74895;BME280;63447;49.446;8.666;2023-11-19T00:37:24;100235.09;;;7.91;100.00
74895;BME280;63447;49.446;8.666;2023-11-19T00:39:51;100236.91;;;7.96;100.00
74895;BME280;63447;49.446;8.666;2023-11-19T00:42:17;100248.25;;;8.03;100.00
74895;BME280;63447;49.446;8.666;2023-11-19T00:44:42;100244.31;;;7.95;100.00
74895;BME280;63447;49.446;8.666;2023-11-19T00:47:08;100248.56;;;8.10;100.00
74895;BME280;63447;49.446;8.666;2023-11-19T00:49:33;100236.59;;;8.06;100.00
74895;BME280;63447;49.446;8.666;2023-11-19T00:52:01;100243.56;;;8.12;100.00
74895;BME280;63447;49.446;8.666;2023-11-19T00:54:27;100234.38;;;8.16;100.00
74895;BME280;63447;49.446;8.666;2023-11-19T00:56:57;100255.22;;;8.17;100.00
74895;BME280;63447;49.446;8.666;2023-11-19T00:59:23;100253.59;;;8.16;100.00
74895;BME280;63447;49.446;8.666;2023-11-19T01:01:48;100260.72;;;8.17;100.00
74895;BME280;63447;49.446;8.666;2023-11-19T01:04:14;100257.97;;;8.17;100.00
74895;BME280;63447;49.446;8.666;2023-11-19T01:06:39;100259.78;;;8.22;100.00
74895;BME280;63447;49.446;8.666;2023-11-19T01:09:05;100260.09;;;8.21;100.00
74895;BME280;63447;49.446;8.666;2023-11-19T01:11:30;100267.22;;;8.22;100.00
74895;BME280;63447;49.446;8.666;2023-11-19T01:13:59;100265.28;;;8.22;100.00
74895;BME280;63447;49.446;8.666;2023-11-19T01:16:25;100258.31;;;8.25;100.00
74895;BME280;63447;49.446;8.666;2023-11-19T01:18:51;100242.34;;;8.27;100.00
74895;BME280;63447;49.446;8.666;2023-11-19T01:21:18;100246.69;;;8.28;100.00
74895;BME280;63447;49.446;8.666;2023-11-19T01:23:44;100256.38;;;8.25;100.00
74895;BME280;63447;49.446;8.666;2023-11-19T01:26:11;100247.50;;;8.28;100.00
74895;BME280;63447;49.446;8.666;2023-11-19T01:28:37;100229.84;;;8.21;100.00
74895;BME280;63447;49.446;8.666;2023-11-19T01:31:06;100250.75;;;8.30;100.00
74895;BME280;63447;49.446;8.666;2023-11-19T01:33:39;100246.38;;;8.29;100.00
74895;BME280;63447;49.446;8.666;2023-11-19T01:36:06;100252.41;;;8.40;100.00
74895;BME280;63447;49.446;8.666;2023-11-19T01:38:33;100244.66;;;8.42;100.00
74895;BME280;63447;49.446;8.666;2023-11-19T01:40:59;100250.81;;;8.47;100.00
74895;BME280;63447;49.446;8.666;2023-11-19T01:43:34;100251.31;;;8.49;100.00
74895;BME280;63447;49.446;8.666;2023-11-19T01:46:02;100265.53;;;8.60;100.00
74895;BME280;63447;49.446;8.666;2023-11-19T01:48:33;100258.91;;;8.53;100.00
74895;BME280;63447;49.446;8.666;2023-11-19T01:51:03;100258.41;;;8.50;100.00
74895;BME280;63447;49.446;8.666;2023-11-19T01:53:29;100248.22;;;8.51;100.00
74895;BME280;63447;49.446;8.666;2023-11-19T01:56:00;100243.53;;;8.52;100.00
74895;BME280;63447;49.446;8.666;2023-11-19T01:58:28;100244.97;;;8.58;100.00
74895;BME280;63447;49.446;8.666;2023-11-19T02:00:55;100231.59;;;8.56;100.00
74895;BME280;63447;49.446;8.666;2023-11-19T02:03:21;100213.28;;;8.52;100.00
74895;BME280;63447;49.446;8.666;2023-11-19T02:05:48;100194.34;;;8.41;100.00
74895;BME280;63447;49.446;8.666;2023-11-19T02:08:16;100228.47;;;8.58;100.00
74895;BME280;63447;49.446;8.666;2023-11-19T02:10:41;100222.19;;;8.57;100.00
74895;BME280;63447;49.446;8.666;2023-11-19T02:13:08;100216.03;;;8.60;100.00
74895;BME280;63447;49.446;8.666;2023-11-19T02:15:35;100205.69;;;8.66;100.00
74895;BME280;63447;49.446;8.666;2023-11-19T02:20:50;100195.31;;;8.63;100.00
74895;BME280;63447;49.446;8.666;2023-11-19T02:23:19;100195.50;;;8.66;100.00
74895;BME280;63447;49.446;8.666;2023-11-19T02:26:17;100196.47;;;8.70;100.00
74895;BME280;63447;49.446;8.666;2023-11-19T02:28:48;100194.84;;;8.78;100.00
74895;BME280;63447;49.446;8.666;2023-11-19T02:31:15;100191.94;;;8.74;100.00
74895;BME280;63447;49.446;8.666;2023-11-19T02:33:41;100190.16;;;8.78;100.00
74895;BME280;63447;49.446;8.666;2023-11-19T02:36:07;100185.47;;;8.79;100.00
74895;BME280;63447;49.446;8.666;2023-11-19T02:38:34;100182.06;;;8.82;100.00
74895;BME280;63447;49.446;8.666;2023-11-19T02:41:05;100180.13;;;8.82;100.00
74895;BME280;63447;49.446;8.666;2023-11-19T02:43:32;100171.88;;;8.82;100.00
74895;BME280;63447;49.446;8.666;2023-11-19T02:46:03;100173.63;;;8.87;100.00
74895;BME280;63447;49.446;8.666;2023-11-19T02:48:34;100176.88;;;8.89;100.00
74895;BME280;63447;49.446;8.666;2023-11-19T02:51:03;100172.97;;;8.90;100.00
74895;BME280;63447;49.446;8.666;2023-11-19T02:53:36;100181.72;;;8.92;100.00
74895;BME280;63447;49.446;8.666;2023-11-19T02:56:07;100169.44;;;8.90;100.00
74895;BME280;63447;49.446;8.666;2023-11-19T02:59:07;100176.53;;;8.91;100.00
74895;BME280;63447;49.446;8.666;2023-11-19T03:01:40;100164.41;;;8.92;100.00
74895;BME280;63447;49.446;8.666;2023-11-19T03:04:09;100162.94;;;8.94;100.00
74895;BME280;63447;49.446;8.666;2023-11-19T03:06:37;100161.16;;;8.98;100.00
74895;BME280;63447;49.446;8.666;2023-11-19T03:09:02;100145.47;;;8.99;100.00
74895;BME280;63447;49.446;8.666;2023-11-19T03:11:35;100132.19;;;9.01;100.00
74895;BME280;63447;49.446;8.666;2023-11-19T03:14:00;100135.72;;;9.10;100.00
74895;BME280;63447;49.446;8.666;2023-11-19T03:16:28;100122.31;;;9.00;100.00
74895;BME280;63447;49.446;8.666;2023-11-19T03:18:55;100136.06;;;9.08;100.00
74895;BME280;63447;49.446;8.666;2023-11-19T03:21:30;100134.44;;;9.07;100.00
74895;BME280;63447;49.446;8.666;2023-11-19T03:23:58;100146.56;;;9.15;100.00
74895;BME280;63447;49.446;8.666;2023-11-19T03:26:27;100124.53;;;9.15;100.00
74895;BME280;63447;49.446;8.666;2023-11-19T03:28:54;100120.66;;;9.16;100.00
74895;BME280;63447;49.446;8.666;2023-11-19T03:31:22;100125.00;;;9.26;100.00
74895;BME280;63447;49.446;8.666;2023-11-19T03:33:47;100117.56;;;9.17;100.00
74895;BME280;63447;49.446;8.666;2023-11-19T03:36:15;100126.44;;;9.32;100.00
74895;BME280;63447;49.446;8.666;2023-11-19T03:38:40;100116.75;;;9.26;100.00
74895;BME280;63447;49.446;8.666;2023-11-19T03:41:11;100128.66;;;9.38;100.00
74895;BME280;63447;49.446;8.666;2023-11-19T03:43:37;100124.50;;;9.32;100.00
74895;BME280;63447;49.446;8.666;2023-11-19T03:46:02;100114.94;;;9.30;100.00
74895;BME280;63447;49.446;8.666;2023-11-19T03:48:30;100113.75;;;9.39;100.00
74895;BME280;63447;49.446;8.666;2023-11-19T03:50:58;100110.06;;;9.35;100.00
74895;BME280;63447;49.446;8.666;2023-11-19T03:53:23;100113.09;;;9.42;100.00
74895;BME280;63447;49.446;8.666;2023-11-19T03:55:49;100118.59;;;9.42;100.00
74895;BME280;63447;49.446;8.666;2023-11-19T03:58:15;100109.38;;;9.38;100.00
74895;BME280;63447;49.446;8.666;2023-11-19T04:00:40;100112.94;;;9.39;100.00
74895;BME280;63447;49.446;8.666;2023-11-19T04:03:06;100117.13;;;9.45;100.00
74895;BME280;63447;49.446;8.666;2023-11-19T04:05:31;100115.19;;;9.45;100.00
74895;BME280;63447;49.446;8.666;2023-11-19T04:07:56;100113.41;;;9.49;100.00
74895;BME280;63447;49.446;8.666;2023-11-19T04:10:22;100115.66;;;9.56;100.00
74895;BME280;63447;49.446;8.666;2023-11-19T04:12:47;100111.94;;;9.52;100.00
74895;BME280;63447;49.446;8.666;2023-11-19T04:15:14;100106.44;;;9.52;100.00
74895;BME280;63447;49.446;8.666;2023-11-19T04:17:40;100104.16;;;9.54;100.00
74895;BME280;63447;49.446;8.666;2023-11-19T04:20:08;100108.84;;;9.53;100.00
74895;BME280;63447;49.446;8.666;2023-11-19T04:22:37;100112.88;;;9.56;100.00
74895;BME280;63447;49.446;8.666;2023-11-19T04:25:07;100114.50;;;9.57;100.00
74895;BME280;63447;49.446;8.666;2023-11-19T04:27:33;100112.22;;;9.59;100.00
74895;BME280;63447;49.446;8.666;2023-11-19T04:29:59;100122.22;;;9.64;100.00
74895;BME280;63447;49.446;8.666;2023-11-19T04:32:26;100121.22;;;9.68;100.00
74895;BME280;63447;49.446;8.666;2023-11-19T04:34:52;100122.84;;;9.69;100.00
74895;BME280;63447;49.446;8.666;2023-11-19T04:37:20;100119.09;;;9.74;100.00
74895;BME280;63447;49.446;8.666;2023-11-19T04:39:45;100117.50;;;9.73;100.00
74895;BME280;63447;49.446;8.666;2023-11-19T04:42:11;100108.22;;;9.77;100.00
74895;BME280;63447;49.446;8.666;2023-11-19T04:44:36;100108.09;;;9.74;100.00
74895;BME280;63447;49.446;8.666;2023-11-19T04:47:02;100108.09;;;9.74;100.00
74895;BME280;63447;49.446;8.666;2023-11-19T04:49:27;100117.97;;;9.75;100.00
74895;BME280;63447;49.446;8.666;2023-11-19T04:51:52;100106.75;;;9.80;100.00
74895;BME280;63447;49.446;8.666;2023-11-19T04:54:18;100110.00;;;9.82;100.00
74895;BME280;63447;49.446;8.666;2023-11-19T04:56:47;100100.59;;;9.83;100.00
74895;BME280;63447;49.446;8.666;2023-11-19T04:59:14;100089.09;;;9.81;100.00
74895;BME280;63447;49.446;8.666;2023-11-19T05:01:40;100083.44;;;9.77;100.00
74895;BME280;63447;49.446;8.666;2023-11-19T05:04:09;100087.16;;;9.81;100.00
74895;BME280;63447;49.446;8.666;2023-11-19T05:06:36;100097.56;;;9.97;100.00
74895;BME280;63447;49.446;8.666;2023-11-19T05:09:02;100089.00;;;9.90;100.00
74895;BME280;63447;49.446;8.666;2023-11-19T05:11:36;100095.00;;;9.92;100.00
74895;BME280;63447;49.446;8.666;2023-11-19T05:14:04;100096.44;;;9.98;100.00
74895;BME280;63447;49.446;8.666;2023-11-19T05:16:30;100107.44;;;9.98;100.00
74895;BME280;63447;49.446;8.666;2023-11-19T05:18:56;100097.75;;;9.92;100.00
74895;BME280;63447;49.446;8.666;2023-11-19T05:21:23;100103.88;;;9.97;100.00
74895;BME280;63447;49.446;8.666;2023-11-19T05:23:51;100102.75;;;9.98;100.00
74895;BME280;63447;49.446;8.666;2023-11-19T05:26:20;100093.88;;;9.93;100.00
74895;BME280;63447;49.446;8.666;2023-11-19T05:28:48;100100.13;;;10.02;100.00
74895;BME280;63447;49.446;8.666;2023-11-19T05:31:15;100111.63;;;10.04;100.00
74895;BME280;63447;49.446;8.666;2023-11-19T05:33:43;100109.53;;;10.01;100.00
74895;BME280;63447;49.446;8.666;2023-11-19T05:36:10;100104.97;;;10.05;100.00
74895;BME280;63447;49.446;8.666;2023-11-19T05:38:36;100095.44;;;10.02;100.00
74895;BME280;63447;49.446;8.666;2023-11-19T05:41:02;100115.34;;;10.08;100.00
74895;BME280;63447;49.446;8.666;2023-11-19T05:43:28;100107.00;;;10.16;100.00
74895;BME280;63447;49.446;8.666;2023-11-19T05:45:53;100093.19;;;10.16;100.00
74895;BME280;63447;49.446;8.666;2023-11-19T05:48:18;100089.16;;;10.14;100.00
74895;BME280;63447;49.446;8.666;2023-11-19T05:50:46;100092.41;;;10.16;100.00
74895;BME280;63447;49.446;8.666;2023-11-19T05:53:12;100088.34;;;10.13;100.00
74895;BME280;63447;49.446;8.666;2023-11-19T05:55:40;100093.19;;;10.25;100.00
74895;BME280;63447;49.446;8.666;2023-11-19T05:58:15;100082.47;;;10.24;100.00
74895;BME280;63447;49.446;8.666;2023-11-19T06:00:40;100077.78;;;10.24;100.00
74895;BME280;63447;49.446;8.666;2023-11-19T06:03:08;100074.53;;;10.22;100.00
74895;BME280;63447;49.446;8.666;2023-11-19T06:05:36;100074.69;;;10.26;100.00
74895;BME280;63447;49.446;8.666;2023-11-19T06:08:01;100065.75;;;10.29;100.00
74895;BME280;63447;49.446;8.666;2023-11-19T06:10:26;100064.06;;;10.36;100.00
74895;BME280;63447;49.446;8.666;2023-11-19T06:12:59;100075.19;;;10.40;100.00
74895;BME280;63447;49.446;8.666;2023-11-19T06:15:25;100067.34;;;10.30;100.00
74895;BME280;63447;49.446;8.666;2023-11-19T06:17:52;100075.19;;;10.40;100.00
74895;BME280;63447;49.446;8.666;2023-11-19T06:20:18;100082.00;;;10.42;100.00
74895;BME280;63447;49.446;8.666;2023-11-19T06:22:45;100074.41;;;10.39;100.00
74895;BME280;63447;49.446;8.666;2023-11-19T06:25:17;100088.66;;;10.41;100.00
74895;BME280;63447;49.446;8.666;2023-11-19T06:27:43;100078.53;;;10.33;100.00
74895;BME280;63447;49.446;8.666;2023-11-19T06:30:09;100100.63;;;10.45;100.00
74895;BME280;63447;49.446;8.666;2023-11-19T06:32:35;100098.34;;;10.47;100.00
74895;BME280;63447;49.446;8.666;2023-11-19T06:35:00;100105.94;;;10.50;100.00
74895;BME280;63447;49.446;8.666;2023-11-19T06:37:25;100098.28;;;10.56;100.00
74895;BME280;63447;49.446;8.666;2023-11-19T06:39:52;100083.41;;;10.48;100.00
74895;BME280;63447;49.446;8.666;2023-11-19T06:42:17;100092.69;;;10.65;100.00
74895;BME280;63447;49.446;8.666;2023-11-19T06:44:45;100092.78;;;10.68;100.00
74895;BME280;63447;49.446;8.666;2023-11-19T06:47:10;100091.78;;;10.73;100.00
74895;BME280;63447;49.446;8.666;2023-11-19T06:49:35;100091.63;;;10.69;100.00
74895;BME280;63447;49.446;8.666;2023-11-19T06:52:01;100092.13;;;10.71;100.00
74895;BME280;63447;49.446;8.666;2023-11-19T06:54:29;100100.06;;;10.73;100.00
74895;BME280;63447;49.446;8.666;2023-11-19T06:56:57;100099.50;;;10.79;100.00
74895;BME280;63447;49.446;8.666;2023-11-19T06:59:23;100117.34;;;10.82;100.00
74895;BME280;63447;49.446;8.666;2023-11-19T07:01:48;100125.88;;;10.89;100.00
74895;BME280;63447;49.446;8.666;2023-11-19T07:04:14;100132.09;;;10.86;100.00
74895;BME280;63447;49.446;8.666;2023-11-19T07:06:41;100142.53;;;10.93;100.00
74895;BME280;63447;49.446;8.666;2023-11-19T07:09:07;100133.25;;;10.97;100.00
74895;BME280;63447;49.446;8.666;2023-11-19T07:11:39;100117.38;;;10.94;100.00
74895;BME280;63447;49.446;8.666;2023-11-19T07:14:05;100131.75;;;11.00;100.00
74895;BME280;63447;49.446;8.666;2023-11-19T07:16:32;100132.38;;;11.05;100.00
74895;BME280;63447;49.446;8.666;2023-11-19T07:18:58;100133.97;;;11.06;100.00
74895;BME280;63447;49.446;8.666;2023-11-19T07:21:25;100141.13;;;11.07;100.00
74895;BME280;63447;49.446;8.666;2023-11-19T07:23:52;100134.78;;;11.07;100.00
74895;BME280;63447;49.446;8.666;2023-11-19T07:26:18;100138.34;;;11.07;100.00
74895;BME280;63447;49.446;8.666;2023-11-19T07:28:43;100131.91;;;11.03;100.00
74895;BME280;63447;49.446;8.666;2023-11-19T07:31:10;100142.78;;;11.33;100.00
74895;BME280;63447;49.446;8.666;2023-11-19T07:33:39;100135.41;;;11.25;100.00
74895;BME280;63447;49.446;8.666;2023-11-19T07:36:05;100149.06;;;11.21;100.00
74895;BME280;63447;49.446;8.666;2023-11-19T07:38:33;100152.56;;;11.30;100.00
74895;BME280;63447;49.446;8.666;2023-11-19T07:40:58;100155.22;;;11.39;100.00
74895;BME280;63447;49.446;8.666;2023-11-19T07:43:24;100150.19;;;11.41;100.00
74895;BME280;63447;49.446;8.666;2023-11-19T07:45:49;100149.84;;;11.42;100.00
74895;BME280;63447;49.446;8.666;2023-11-19T07:48:14;100147.88;;;11.43;100.00
74895;BME280;63447;49.446;8.666;2023-11-19T07:50:40;100143.38;;;11.38;100.00
74895;BME280;63447;49.446;8.666;2023-11-19T07:53:08;100146.94;;;11.39;100.00
74895;BME280;63447;49.446;8.666;2023-11-19T07:55:34;100145.69;;;11.36;100.00
74895;BME280;63447;49.446;8.666;2023-11-19T07:57:59;100151.31;;;11.40;100.00
74895;BME280;63447;49.446;8.666;2023-11-19T08:00:24;100158.22;;;11.34;100.00
74895;BME280;63447;49.446;8.666;2023-11-19T08:02:52;100157.28;;;11.30;100.00
74895;BME280;63447;49.446;8.666;2023-11-19T08:05:18;100158.34;;;11.37;100.00
74895;BME280;63447;49.446;8.666;2023-11-19T08:07:43;100157.75;;;11.32;100.00
74895;BME280;63447;49.446;8.666;2023-11-19T08:10:11;100154.19;;;11.31;100.00
74895;BME280;63447;49.446;8.666;2023-11-19T08:12:36;100152.97;;;11.20;100.00
74895;BME280;63447;49.446;8.666;2023-11-19T08:15:05;100147.56;;;11.11;100.00
74895;BME280;63447;49.446;8.666;2023-11-19T08:17:32;100161.84;;;11.13;100.00
74895;BME280;63447;49.446;8.666;2023-11-19T08:20:00;100154.25;;;11.10;100.00
74895;BME280;63447;49.446;8.666;2023-11-19T08:22:28;100157.34;;;11.09;100.00
74895;BME280;63447;49.446;8.666;2023-11-19T08:24:53;100161.38;;;11.11;100.00
74895;BME280;63447;49.446;8.666;2023-11-19T08:27:19;100168.25;;;11.05;100.00
74895;BME280;63447;49.446;8.666;2023-11-19T08:29:44;100186.84;;;11.17;100.00
74895;BME280;63447;49.446;8.666;2023-11-19T08:32:09;100160.09;;;11.09;100.00
74895;BME280;63447;49.446;8.666;2023-11-19T08:34:38;100174.44;;;11.35;100.00
74895;BME280;63447;49.446;8.666;2023-11-19T08:37:03;100164.53;;;11.34;100.00
74895;BME280;63447;49.446;8.666;2023-11-19T08:39:28;100162.59;;;11.47;100.00
74895;BME280;63447;49.446;8.666;2023-11-19T08:41:55;100157.66;;;11.52;100.00
74895;BME280;63447;49.446;8.666;2023-11-19T08:44:23;100155.47;;;11.70;100.00
74895;BME280;63447;49.446;8.666;2023-11-19T08:46:51;100153.78;;;12.02;100.00
74895;BME280;63447;49.446;8.666;2023-11-19T08:49:17;100166.09;;;12.29;100.00
74895;BME280;63447;49.446;8.666;2023-11-19T08:51:44;100163.88;;;12.35;100.00
74895;BME280;63447;49.446;8.666;2023-11-19T08:54:12;100162.63;;;12.44;100.00
74895;BME280;63447;49.446;8.666;2023-11-19T08:56:39;100164.75;;;12.63;100.00
74895;BME280;63447;49.446;8.666;2023-11-19T08:59:06;100168.50;;;12.43;100.00
74895;BME280;63447;49.446;8.666;2023-11-19T09:01:34;100185.22;;;12.34;100.00
74895;BME280;63447;49.446;8.666;2023-11-19T09:03:59;100177.13;;;12.41;100.00
74895;BME280;63447;49.446;8.666;2023-11-19T09:06:25;100176.69;;;12.39;100.00
74895;BME280;63447;49.446;8.666;2023-11-19T09:08:50;100170.00;;;12.28;100.00
74895;BME280;63447;49.446;8.666;2023-11-19T09:11:18;100173.22;;;12.30;100.00
74895;BME280;63447;49.446;8.666;2023-11-19T09:13:43;100168.19;;;12.20;100.00
74895;BME280;63447;49.446;8.666;2023-11-19T09:16:13;100164.28;;;12.21;100.00
74895;BME280;63447;49.446;8.666;2023-11-19T09:18:41;100175.41;;;12.24;100.00
74895;BME280;63447;49.446;8.666;2023-11-19T09:21:07;100168.72;;;12.26;100.00
74895;BME280;63447;49.446;8.666;2023-11-19T09:23:34;100177.50;;;12.28;100.00
74895;BME280;63447;49.446;8.666;2023-11-19T09:26:08;100176.56;;;12.23;100.00
74895;BME280;63447;49.446;8.666;2023-11-19T09:28:33;100181.19;;;12.32;100.00
74895;BME280;63447;49.446;8.666;2023-11-19T09:31:12;100177.16;;;12.29;100.00
74895;BME280;63447;49.446;8.666;2023-11-19T09:33:37;100190.28;;;12.32;100.00
74895;BME280;63447;49.446;8.666;2023-11-19T09:36:06;100173.47;;;12.37;100.00
74895;BME280;63447;49.446;8.666;2023-11-19T09:38:31;100182.03;;;12.60;100.00
74895;BME280;63447;49.446;8.666;2023-11-19T09:40:58;100176.50;;;12.72;100.00
74895;BME280;63447;49.446;8.666;2023-11-19T09:43:25;100184.22;;;12.67;100.00
74895;BME280;63447;49.446;8.666;2023-11-19T09:45:54;100178.44;;;12.72;100.00
74895;BME280;63447;49.446;8.666;2023-11-19T09:48:21;100165.66;;;12.67;100.00
74895;BME280;63447;49.446;8.666;2023-11-19T09:50:49;100177.66;;;12.71;100.00
74895;BME280;63447;49.446;8.666;2023-11-19T09:53:17;100186.66;;;12.68;100.00
74895;BME280;63447;49.446;8.666;2023-11-19T09:55:47;100186.88;;;12.63;100.00
74895;BME280;63447;49.446;8.666;2023-11-19T09:58:13;100176.50;;;12.60;100.00
74895;BME280;63447;49.446;8.666;2023-11-19T10:00:40;100177.66;;;12.59;100.00
74895;BME280;63447;49.446;8.666;2023-11-19T10:03:07;100170.88;;;12.56;100.00
74895;BME280;63447;49.446;8.666;2023-11-19T10:05:34;100177.31;;;12.61;100.00
74895;BME280;63447;49.446;8.666;2023-11-19T10:08:01;100163.47;;;12.61;100.00
74895;BME280;63447;49.446;8.666;2023-11-19T10:10:28;100169.13;;;12.64;100.00
74895;BME280;63447;49.446;8.666;2023-11-19T10:12:54;100166.59;;;12.59;100.00
74895;BME280;63447;49.446;8.666;2023-11-19T10:15:21;100165.09;;;12.62;100.00
74895;BME280;63447;49.446;8.666;2023-11-19T10:17:55;100164.19;;;12.57;100.00
74895;BME280;63447;49.446;8.666;2023-11-19T10:20:25;100163.28;;;13.37;100.00
74895;BME280;63447;49.446;8.666;2023-11-19T10:22:54;100163.41;;;14.58;100.00
74895;BME280;63447;49.446;8.666;2023-11-19T10:27:54;100160.09;;;15.30;98.23
74895;BME280;63447;49.446;8.666;2023-11-19T10:30:23;100152.00;;;17.02;87.05
74895;BME280;63447;49.446;8.666;2023-11-19T10:35:50;100146.16;;;15.49;89.62
74895;BME280;63447;49.446;8.666;2023-11-19T10:38:18;100153.28;;;14.66;96.08
74895;BME280;63447;49.446;8.666;2023-11-19T10:40:43;100146.44;;;15.21;92.08
74895;BME280;63447;49.446;8.666;2023-11-19T10:43:09;100142.09;;;14.62;95.95
74895;BME280;63447;49.446;8.666;2023-11-19T10:45:35;100133.63;;;16.08;87.72
74895;BME280;63447;49.446;8.666;2023-11-19T10:48:02;100129.16;;;16.89;85.57
74895;BME280;63447;49.446;8.666;2023-11-19T10:50:31;100130.59;;;17.91;76.13
74895;BME280;63447;49.446;8.666;2023-11-19T10:52:57;100138.78;;;19.08;73.25
74895;BME280;63447;49.446;8.666;2023-11-19T10:55:31;100133.25;;;19.29;67.99
74895;BME280;63447;49.446;8.666;2023-11-19T10:58:01;100121.66;;;17.30;71.61
74895;BME280;63447;49.446;8.666;2023-11-19T11:00:37;100123.31;;;16.38;77.61
74895;BME280;63447;49.446;8.666;2023-11-19T11:03:11;100118.53;;;16.09;80.71
74895;BME280;63447;49.446;8.666;2023-11-19T11:05:40;100116.03;;;16.00;79.64
74895;BME280;63447;49.446;8.666;2023-11-19T11:08:06;100134.13;;;15.64;82.99
74895;BME280;63447;49.446;8.666;2023-11-19T11:10:32;100122.53;;;15.16;84.08
74895;BME280;63447;49.446;8.666;2023-11-19T11:13:02;100110.66;;;15.19;85.49
74895;BME280;63447;49.446;8.666;2023-11-19T11:15:30;100127.38;;;15.00;88.90
74895;BME280;63447;49.446;8.666;2023-11-19T11:18:02;100125.56;;;14.69;89.37
74895;BME280;63447;49.446;8.666;2023-11-19T11:20:30;100118.34;;;14.45;89.31
74895;BME280;63447;49.446;8.666;2023-11-19T11:28:46;100128.22;;;14.27;87.84
74895;BME280;63447;49.446;8.666;2023-11-19T11:31:41;100125.81;;;14.25;88.80
74895;BME280;63447;49.446;8.666;2023-11-19T11:34:17;100141.53;;;14.37;86.41
74895;BME280;63447;49.446;8.666;2023-11-19T11:37:10;100126.44;;;14.19;88.36
74895;BME280;63447;49.446;8.666;2023-11-19T11:39:39;100109.97;;;14.26;88.30
74895;BME280;63447;49.446;8.666;2023-11-19T11:55:26;100092.34;;;18.75;66.10
74895;BME280;63447;49.446;8.666;2023-11-19T11:57:53;100079.69;;;19.23;61.94
74895;BME280;63447;49.446;8.666;2023-11-19T12:00:39;100084.34;;;20.61;56.05
74895;BME280;63447;49.446;8.666;2023-11-19T12:03:08;100092.97;;;20.99;54.07
74895;BME280;63447;49.446;8.666;2023-11-19T12:05:41;100093.06;;;21.51;51.98
74895;BME280;63447;49.446;8.666;2023-11-19T12:08:11;100091.53;;;21.87;50.20
74895;BME280;63447;49.446;8.666;2023-11-19T12:10:51;100088.03;;;21.24;52.53
74895;BME280;63447;49.446;8.666;2023-11-19T12:13:20;100078.13;;;21.02;50.47
74895;BME280;63447;49.446;8.666;2023-11-19T12:18:24;100061.59;;;20.42;55.55
74895;BME280;63447;49.446;8.666;2023-11-19T12:20:53;100080.03;;;21.23;50.73
74895;BME280;63447;49.446;8.666;2023-11-19T12:23:21;100060.94;;;19.70;54.44
74895;BME280;63447;49.446;8.666;2023-11-19T12:25:47;100085.72;;;19.43;55.16
74895;BME280;63447;49.446;8.666;2023-11-19T12:28:13;100073.44;;;18.43;57.41
74895;BME280;63447;49.446;8.666;2023-11-19T12:30:38;100065.06;;;17.74;59.92
74895;BME280;63447;49.446;8.666;2023-11-19T12:33:11;100033.88;;;17.14;62.17
74895;BME280;63447;49.446;8.666;2023-11-19T12:35:40;100074.38;;;17.04;62.17
74895;BME280;63447;49.446;8.666;2023-11-19T12:38:05;100053.66;;;17.02;62.08
74895;BME280;63447;49.446;8.666;2023-11-19T12:40:31;100054.63;;;16.49;63.84
74895;BME280;63447;49.446;8.666;2023-11-19T12:42:59;100048.59;;;16.74;64.56
74895;BME280;63447;49.446;8.666;2023-11-19T12:45:36;100053.53;;;17.32;62.88
74895;BME280;63447;49.446;8.666;2023-11-19T12:48:07;100054.13;;;17.55;61.72
74895;BME280;63447;49.446;8.666;2023-11-19T12:50:54;100044.09;;;17.47;62.49
74895;BME280;63447;49.446;8.666;2023-11-19T12:53:23;100033.69;;;17.95;61.66
74895;BME280;63447;49.446;8.666;2023-11-19T12:55:52;100035.66;;;20.13;56.36
74895;BME280;63447;49.446;8.666;2023-11-19T12:58:33;100031.84;;;21.31;51.57
74895;BME280;63447;49.446;8.666;2023-11-19T13:01:06;100021.06;;;23.30;46.33
74895;BME280;63447;49.446;8.666;2023-11-19T13:03:34;100032.50;;;23.43;44.96
74895;BME280;63447;49.446;8.666;2023-11-19T13:06:09;100032.75;;;23.29;44.23
74895;BME280;63447;49.446;8.666;2023-11-19T13:08:37;100031.75;;;23.89;43.29
74895;BME280;63447;49.446;8.666;2023-11-19T13:11:03;100031.16;;;23.51;43.49
74895;BME280;63447;49.446;8.666;2023-11-19T13:13:31;100044.94;;;23.92;42.21
74895;BME280;63447;49.446;8.666;2023-11-19T13:16:04;100032.72;;;22.79;43.68
74895;BME280;63447;49.446;8.666;2023-11-19T13:18:34;100038.63;;;22.20;45.50